NCAR-RAP Real-Time Weather Data

Output produced by METARs form (26 May 2022  07:14 UTC)
found at http://weather.rap.ucar.edu/surface/
 
KRIC 260654Z 03004KT 10SM BKN015 BKN020 OVC035 16/13 A3026 RMK AO2 SLP251 T01560133 $
KRIC 260554Z 01004KT 10SM OVC015 16/13 A3027 RMK AO2 SLP255 T01610128 10183 20150 58010 $
KRIC 260507Z 03004KT 10SM BKN016 BKN022 OVC032 16/13 A3028 RMK AO2 T01610128 $
KRIC 260454Z 01004KT 10SM FEW022 OVC046 16/12 A3029 RMK AO2 SLP261 T01610122 401940133 $
KRIC 260354Z 05004KT 10SM SCT022 OVC048 16/13 A3029 RMK AO2 SLP263 T01610128 $
KRIC 260344Z 05004KT 10SM SCT022 OVC045 16/13 A3030 RMK AO2 T01610128
KRIC 260342Z 05004KT 10SM SCT022 OVC046 16/13 A3030 RMK AO2 T01610128
KRIC 260325Z 05005KT 10SM BKN022 OVC048 16/13 A3030 RMK AO2 T01610128
KRIC 260254Z 05005KT 10SM BKN042 OVC050 17/13 A3030 RMK AO2 SLP266 T01670128 52003
KRIC 260154Z 05003KT 10SM OVC048 17/12 A3030 RMK AO2 SLP265 T01720122
KRIC 260054Z 08006KT 10SM OVC037 17/13 A3030 RMK AO2 SLP264 T01720128
KRIC 252354Z 09004KT 10SM OVC035 18/13 A3029 RMK AO2 SLP263 60000 T01830133 10189 20172 53001
KRIC 252254Z 02005KT 10SM FEW025 BKN035 19/14 A3028 RMK AO2 SLP258 T01890139
KRIC 252154Z 05007KT 10SM SCT014 BKN030 OVC045 19/14 A3028 RMK AO2 RAB01E14 SLP259 P0000 T01890144
KRIC 252106Z 07006KT 4SM -RA BR FEW009 BKN012 OVC024 17/15 A3029 RMK AO2 RAB01 P0000 T01720150
KRIC 252054Z 02005KT 10SM FEW009 OVC025 18/16 A3029 RMK AO2 RAB25E46 SLP262 P0000 60000 T01780156 58004
KRIC 251954Z 06011KT 10SM BKN020 OVC025 18/15 A3029 RMK AO2 RAB18E32 SLP263 P0000 T01830150
KRIC 251854Z 05009KT 9SM FEW016 OVC024 19/16 A3030 RMK AO2 RAB03E12 SLP266 P0000 T01890156
KRIC 251754Z 06009KT 10SM OVC022 19/16 A3030 RMK AO2 SLP266 60001 T01890156 10194 20144 58001
KRIC 251654Z 08006KT 10SM FEW011 OVC019 18/16 A3031 RMK AO2 RAE1555 SLP268 P0000 T01830156
KRIC 251641Z 07008KT 6SM BR FEW008 OVC017 18/16 A3031 RMK AO2 RAE1555 P0000 T01780161
KRIC 251554Z 06006KT 4SM -RA BR OVC009 17/16 A3031 RMK AO2 RAE04B20 CIG 007V013 SLP268 P0000 T01720161
KRIC 251502Z 02006KT 7SM -RA OVC007 17/15 A3031 RMK AO2 CIG 006V011 P0000 T01670150
KRIC 251454Z 03009KT 2 1/2SM -RA BR OVC007 17/15 A3031 RMK AO2 RAB51 CIG 006V011 SLP267 P0000 60001 T01670150 50001 $
KRIC 251354Z 02010KT 7SM OVC007 16/14 A3031 RMK AO2 RAE51 SLP268 P0001 T01560144 $
KRIC 251332Z 01009KT 3SM -RA BR OVC006 16/14 A3032 RMK AO2 P0001 T01560144 $
KRIC 251301Z 36007KT 2 1/2SM -RA BR BKN006 OVC014 15/14 A3031 RMK AO2 P0000 T01500139 $
KRIC 251254Z 36008KT 3SM -RA BR BKN006 OVC016 14/14 A3031 RMK AO2 RAB02 SLP270 P0000 T01440139 $
KRIC 251225Z 01008KT 2 1/2SM -RA BR SCT006 OVC015 14/14 A3030 RMK AO2 RAB02 P0000 T01440139
KRIC 251211Z 34006KT 4SM -RA BR FEW008 OVC016 14/13 A3031 RMK AO2 RAB02 P0000 T01440133
KRIC 251154Z 36007KT 9SM OVC017 14/13 A3030 RMK AO2 SLP266 60000 70045 T01440128 10144 20133 53019 $
KRIC 251054Z 35007KT 10SM BKN014 OVC019 14/13 A3028 RMK AO2 SLP258 T01390128 $
KRIC 250954Z 36005KT 10SM FEW010 BKN014 OVC021 14/12 A3026 RMK AO2 SLP250 T01390122 $
KRIC 250854Z 36005KT 10SM SCT010 BKN014 OVC021 14/13 A3025 RMK AO2 RAE03 SLP247 P0000 60000 T01390128 55001 $
KRIC 250754Z 35005KT 4SM -RA BR OVC014 14/13 A3024 RMK AO2 RAB05E15B36 SLP246 P0000 T01390133 $
KRIC 250703Z 03007KT 6SM BR OVC014 14/13 A3025 RMK AO2 T01390128 $
KRIC 250654Z 03007KT 10SM OVC016 14/13 A3024 RMK AO2 SLP246 T01390128 $
KRIC 250554Z 01006KT 10SM OVC021 14/13 A3025 RMK AO2 SLP249 60002 T01390128 10150 20139 58000 $
KRIC 250454Z 04007KT 10SM FEW009 BKN023 OVC041 14/13 A3026 RMK AO2 SLP250 T01440128 401780144 $
KRIC 250354Z 04005KT 10SM FEW009 BKN023 OVC041 14/13 A3026 RMK AO2 SLP250 T01440133 $
KRIC 250302Z 05006KT 10SM OVC008 14/13 A3025 RMK AO2 CIG 005V011 T01440133 $
KRIC 250254Z 05009KT 4SM BR OVC010 14/13 A3025 RMK AO2 DZE49 CIG 007V013 SLP249 P0000 60002 T01440133 51013 $
KRIC 250154Z 04009KT 2 1/2SM -DZ BR BKN008 BKN011 OVC029 15/14 A3025 RMK AO2 RAE20DZB50 SLP248 P0001 T01500144 $
KRIC 250054Z 04007KT 2 1/2SM -RA BR OVC006 15/14 A3024 RMK AO2 RAB27 CIG 004V007 SLP244 P0001 T01500144 $
KRIC 242354Z 04009KT 2 1/2SM BR BKN007 OVC026 15/14 A3022 RMK AO2 RAE32 SLP237 P0001 60020 T01500144 10178 20150 51014 $
KRIC 242254Z 03006KT 2 1/2SM -RA BR BKN007 OVC012 15/14 A3021 RMK AO2 SLP235 P0000 T01500144 $
KRIC 242154Z 05009KT 2 1/2SM -RA BR BKN009 BKN012 OVC033 16/14 A3019 RMK AO2 SLP228 P0001 T01560144 $
KRIC 242135Z 05010KT 2 1/2SM -RA BR BKN009 OVC015 16/14 A3019 RMK AO2 P0000 T01560144 $
KRIC 242130Z 05010KT 3SM -RA BR SCT007 BKN011 OVC015 16/14 A3018 RMK AO2 P0000 T01560144 $
KRIC 242054Z 05008KT 3SM -RA BR BKN009 OVC014 16/14 A3018 RMK AO2 SLP223 P0002 60018 T01560144 51008 $
KRIC 241954Z 07012KT 2 1/2SM -RA BR BKN007 OVC018 16/14 A3017 RMK AO2 SLP221 CIG 006V010 P0005 T01560144 $
KRIC 241914Z 07010G17KT 2SM -RA BR BKN006 BKN016 OVC033 17/16 A3016 RMK AO2 P0003 T01720161 $
KRIC 241854Z 05010KT 1 1/2SM R34/6000VP6000FT RA BR BKN007 OVC013 18/17 A3016 RMK AO2 SLP217 P0011 T01780167
KRIC 241754Z 04008KT 1 1/2SM -RA BR OVC005 17/16 A3015 RMK AO2 CIG 004V009 SLP215 P0003 60023 T01720161 10172 20144 58007 $
KRIC 241751Z 04007KT 1 1/2SM -RA BR OVC005 17/17 A3015 RMK AO2 CIG 004V009 P0003 $
KRIC 241654Z 04009KT 5SM -RA BR OVC006 16/15 A3016 RMK AO2 SLP218 P0001 T01610150 $
KRIC 241554Z 03007KT 4SM -RA BR OVC006 15/14 A3017 RMK AO2 CIG 004V008 SLP221 P0002 T01500144
KRIC 241454Z 03009KT 6SM -RA BR BKN006 BKN014 OVC032 15/14 A3017 RMK AO2 SLP222 P0002 60017 T01500139 51003
KRIC 241410Z 04010KT 5SM -RA BR BKN008 BKN019 OVC032 14/13 A3017 RMK AO2 P0001 T01440133
KRIC 241354Z 05009KT 5SM -RA BR SCT006 SCT013 OVC034 15/14 A3017 RMK AO2 SLP222 P0007 T01500139
KRIC 241336Z 07007KT 2 1/2SM -RA BR SCT007 SCT014 OVC034 15/14 A3018 RMK AO2 P0006 T01500139
KRIC 241316Z 08015G19KT 2SM RA BR SCT006 BKN014 OVC031 15/14 A3018 RMK AO2 P0003 T01500139
KRIC 241254Z 06008KT 1 1/2SM RA BR BKN006 BKN017 OVC030 15/14 A3018 RMK AO2 SLP223 CIG 004V009 P0008 T01500144
KRIC 241240Z 05008KT 2 1/2SM RA BR BKN006 BKN021 OVC035 16/15 A3017 RMK AO2 P0004 T01560150
KRIC 241214Z 08007KT 3SM -RA BR BKN007 BKN017 OVC037 16/14 A3017 RMK AO2 P0001 T01560144
KRIC 241201Z 07008KT 3SM -RA BR FEW005 BKN013 OVC036 16/15 A3017 RMK AO2 P0001 T01560150
KRIC 241154Z 06006KT 2SM -RA BR SCT005 BKN013 OVC036 16/15 A3017 RMK AO2 SLP219 P0014 60078 70101 T01560150 10161 20150 53012
KRIC 241123Z 05007KT 2SM +RA BR FEW007 SCT019 OVC038 16/15 A3016 RMK AO2 P0007 T01560150
KRIC 241054Z 02006KT 10SM -RA SCT011 BKN016 OVC038 16/15 A3015 RMK AO2 SLP215 P0006 T01560150 $
KRIC 240954Z 01004KT 3SM +RA BR BKN011 BKN025 OVC038 15/14 A3014 RMK AO2 SLP210 P0022 T01500144 $
KRIC 240928Z 03006KT 2 1/2SM +RA BR SCT011 OVC036 15/14 A3013 RMK AO2 P0006 T01500144 $
KRIC 240854Z 03006KT 6SM -RA BR BKN008 BKN017 OVC030 16/14 A3013 RMK AO2 CIG 005V012 SLP206 P0018 60036 T01560144 55001 $
KRIC 240851Z 03008KT 6SM -RA BR BKN008 OVC017 16/15 A3013 RMK AO2 CIG 004V012 P0017 $
KRIC 240822Z 04004KT 4SM RA BR SCT008 BKN011 OVC035 16/15 A3013
KRIC 240815Z 04006KT 4SM RA BR BKN008 BKN013 OVC035 16/15 A3012 RMK AO2 P0008 T01560150
KRIC 240804Z 05006KT 4SM +RA BR SCT008 BKN013 OVC036 16/15 A3012 RMK AO2 P0004 T01560150
KRIC 240754Z 04005KT 3SM +RA BR SCT008 BKN015 OVC036 16/15 A3013 RMK AO2 SLP206 P0008 T01560150
KRIC 240742Z 02004KT 5SM RA BR FEW006 BKN015 OVC055 16/15 A3013 RMK AO2 P0003 T01560150